M I D A S
Marine Information and Data Acquisition System
Tripno 1121 of the Zeeleeuw from 2006-04-24 09:05:44 to 2006-04-24 17:00:00
Back to CruiseResearch ActivitiesStationsMapUnderway DataData graphs

EquipmentUnitsComment
TimeDGPSUTC
LatitudeDGPSDM.mWGS84
LongitudeDGPSDM.mWGS84
HeadingGyrodeg 
SOGDGPSknotsSpeed over ground
COGDGPSdegCourse over ground
DepthEcho soundermeters200 kHz
Missing or incorrect values are displayed as -999
Navigation data collected by the RV Zeeleeuw from 2006-04-24 06:44:26 to 2006-04-24 09:08:08
                                                                                    Next 1000 lines
Time Latitude Longitude Heading SOG COG Depth
2006-04-24 06:44:36 51°13.602 2°56.099 126.4 0.1 199 -999
2006-04-24 06:44:41 51°13.602 2°56.099 125.7 -999 112 -999
2006-04-24 06:44:46 51°13.602 2°56.099 125.3 0.1 168 -999
2006-04-24 06:44:51 51°13.602 2°56.099 125 -999 41 -999
2006-04-24 06:44:56 51°13.602 2°56.099 124.9 0.1 233 -999
2006-04-24 06:45:01 51°13.602 2°56.099 125 -999 276 -999
2006-04-24 06:45:06 51°13.602 2°56.099 125.4 -999 204 -999
2006-04-24 06:45:11 51°13.602 2°56.099 125.5 -999 85 -999
2006-04-24 06:45:16 51°13.602 2°56.099 125.6 -999 166 -999
2006-04-24 06:45:21 51°13.602 2°56.099 125.9 -999 60 -999
2006-04-24 06:45:26 51°13.602 2°56.099 126.1 -999 231 -999
2006-04-24 06:45:31 51°13.602 2°56.099 126.3 0.1 64 -999
2006-04-24 06:45:35 51°13.602 2°56.099 126.5 -999 56 -999
2006-04-24 06:45:41 51°13.602 2°56.099 126.7 -999 44 -999
2006-04-24 06:45:46 51°13.602 2°56.099 126.8 -999 98 -999
2006-04-24 06:45:51 51°13.602 2°56.099 126.9 0.1 90 -999
2006-04-24 06:45:56 51°13.602 2°56.099 127 -999 95 -999
2006-04-24 06:46:01 51°13.602 2°56.099 126.9 -999 304 -999
2006-04-24 06:46:06 51°13.602 2°56.099 126.7 0.1 304 -999
2006-04-24 06:46:11 51°13.602 2°56.099 126.6 -999 288 -999
2006-04-24 06:46:16 51°13.602 2°56.099 126.6 -999 288 -999
2006-04-24 06:46:21 51°13.602 2°56.099 126.6 0.1 268 -999
2006-04-24 06:46:26 51°13.602 2°56.099 126.6 -999 252 -999
2006-04-24 06:46:31 51°13.602 2°56.099 126.6 0.1 257 -999
2006-04-24 06:46:36 51°13.602 2°56.099 126.7 -999 273 -999
2006-04-24 06:46:41 51°13.602 2°56.099 126.8 -999 260 -999
2006-04-24 06:46:46 51°13.602 2°56.099 126.8 -999 324 -999
2006-04-24 06:46:51 51°13.602 2°56.099 126.6 -999 168 -999
2006-04-24 06:46:56 51°13.602 2°56.099 126.5 -999 101 -999
2006-04-24 06:47:01 51°13.602 2°56.099 126.3 -999 188 -999
2006-04-24 06:47:06 51°13.602 2°56.099 126.2 -999 270 -999
2006-04-24 06:47:11 51°13.602 2°56.098 126.3 -999 253 -999
2006-04-24 06:47:16 51°13.602 2°56.098 126.5 -999 303 -999
2006-04-24 06:47:21 51°13.602 2°56.098 126.6 -999 209 -999
2006-04-24 06:47:26 51°13.602 2°56.098 126.7 -999 337 -999
2006-04-24 06:47:31 51°13.602 2°56.099 126.7 -999 99 -999
2006-04-24 06:47:35 51°13.602 2°56.099 126.5 -999 118 -999
2006-04-24 06:47:41 51°13.602 2°56.098 126.2 -999 333 -999
2006-04-24 06:47:46 51°13.602 2°56.098 126.2 -999 265 -999
2006-04-24 06:47:51 51°13.602 2°56.098 126.1 -999 327 -999
2006-04-24 06:47:56 51°13.602 2°56.098 126.1 -999 258 -999
2006-04-24 06:48:01 51°13.602 2°56.098 126.1 -999 39 -999
2006-04-24 06:48:06 51°13.602 2°56.098 125.9 -999 211 -999
2006-04-24 06:48:11 51°13.602 2°56.099 125.7 -999 80 -999
2006-04-24 06:48:16 51°13.602 2°56.099 125.5 -999 34 -999
2006-04-24 06:48:21 51°13.602 2°56.099 125.4 -999 16 -999
2006-04-24 06:48:26 51°13.602 2°56.098 125.3 -999 152 -999
2006-04-24 06:48:31 51°13.602 2°56.099 125.3 -999 108 -999
2006-04-24 06:48:36 51°13.602 2°56.099 125.3 -999 128 -999
2006-04-24 06:48:41 51°13.602 2°56.099 125.3 -999 57 -999
2006-04-24 06:48:46 51°13.602 2°56.099 125.2 -999 86 -999
2006-04-24 06:48:51 51°13.602 2°56.099 125.2 -999 20 -999
2006-04-24 06:48:56 51°13.602 2°56.099 125.2 -999 9 -999
2006-04-24 06:49:01 51°13.602 2°56.099 125.2 -999 119 -999
2006-04-24 06:49:06 51°13.602 2°56.099 125.2 -999 124 -999
2006-04-24 06:49:11 51°13.602 2°56.099 125.2 -999 117 -999
2006-04-24 06:49:16 51°13.602 2°56.099 125.2 -999 291 -999
2006-04-24 06:49:21 51°13.602 2°56.099 125.2 -999 76 -999
2006-04-24 06:49:26 51°13.602 2°56.099 125.2 -999 51 -999
2006-04-24 06:49:31 51°13.602 2°56.099 125.2 -999 121 -999
2006-04-24 06:49:36 51°13.602 2°56.099 125.3 -999 157 -999
2006-04-24 06:49:41 51°13.602 2°56.099 125.3 -999 195 -999
2006-04-24 06:49:46 51°13.602 2°56.099 125.3 -999 134 -999
2006-04-24 06:49:51 51°13.602 2°56.099 125.3 -999 244 -999
2006-04-24 06:49:56 51°13.602 2°56.099 125.4 -999 43 -999
2006-04-24 06:50:01 51°13.602 2°56.099 125.4 -999 107 -999
2006-04-24 06:50:06 51°13.602 2°56.099 125.4 -999 291 -999
2006-04-24 06:50:11 51°13.602 2°56.099 125.4 -999 255 -999
2006-04-24 06:50:15 51°13.602 2°56.099 125.5 -999 264 -999
2006-04-24 06:50:21 51°13.602 2°56.099 125.5 -999 1 -999
2006-04-24 06:50:26 51°13.602 2°56.099 125.5 -999 100 -999
2006-04-24 06:50:31 51°13.602 2°56.099 125.5 -999 243 -999
2006-04-24 06:50:36 51°13.602 2°56.099 125.5 -999 308 -999
2006-04-24 06:50:41 51°13.601 2°56.099 125.5 -999 273 -999
2006-04-24 06:50:46 51°13.601 2°56.099 125.5 -999 236 -999
2006-04-24 06:50:51 51°13.601 2°56.099 125.5 -999 82 -999
2006-04-24 06:50:56 51°13.601 2°56.099 125.5 -999 267 -999
2006-04-24 06:51:01 51°13.601 2°56.099 125.5 -999 284 -999
2006-04-24 06:51:06 51°13.601 2°56.099 125.5 -999 295 -999
2006-04-24 06:51:11 51°13.601 2°56.099 125.5 -999 296 -999
2006-04-24 06:51:16 51°13.601 2°56.099 125.5 -999 289 -999
2006-04-24 06:51:21 51°13.601 2°56.099 125.5 -999 281 -999
2006-04-24 06:51:26 51°13.601 2°56.099 125.5 -999 280 -999
2006-04-24 06:51:31 51°13.601 2°56.099 125.6 -999 333 -999
2006-04-24 06:51:36 51°13.601 2°56.099 125.7 -999 142 -999
2006-04-24 06:51:41 51°13.601 2°56.099 125.7 -999 115 -999
2006-04-24 06:51:46 51°13.601 2°56.099 125.8 -999 194 -999
2006-04-24 06:51:51 51°13.601 2°56.099 125.9 -999 171 -999
2006-04-24 06:51:56 51°13.601 2°56.099 126 -999 103 -999
2006-04-24 06:52:01 51°13.601 2°56.099 126 -999 109 -999
2006-04-24 06:52:06 51°13.601 2°56.099 126.1 -999 145 -999
2006-04-24 06:52:11 51°13.601 2°56.099 126.1 -999 282 -999
2006-04-24 06:52:15 51°13.601 2°56.099 126.2 -999 234 -999
2006-04-24 06:52:21 51°13.601 2°56.099 126.2 -999 107 -999
2006-04-24 06:52:26 51°13.601 2°56.099 126.2 -999 229 -999
2006-04-24 06:52:31 51°13.601 2°56.099 126.2 -999 244 -999
2006-04-24 06:52:35 51°13.601 2°56.099 126.3 -999 257 -999
2006-04-24 06:52:41 51°13.601 2°56.099 126.4 -999 61 -999
2006-04-24 06:52:46 51°13.601 2°56.099 126.4 -999 278 -999
2006-04-24 06:52:51 51°13.601 2°56.099 126.6 -999 254 -999
2006-04-24 06:52:56 51°13.601 2°56.099 126.6 -999 241 -999
2006-04-24 06:53:01 51°13.601 2°56.1 126.6 -999 132 -999
2006-04-24 06:53:06 51°13.601 2°56.1 126.6 -999 199 -999
2006-04-24 06:53:11 51°13.601 2°56.1 126.6 -999 214 -999
2006-04-24 06:53:16 51°13.601 2°56.1 126.6 -999 161 -999
2006-04-24 06:53:21 51°13.601 2°56.1 126.6 -999 243 -999
2006-04-24 06:53:26 51°13.601 2°56.1 126.5 -999 65 -999
2006-04-24 06:53:31 51°13.601 2°56.1 126.4 -999 181 -999
2006-04-24 06:53:36 51°13.601 2°56.1 126.3 -999 84 -999
2006-04-24 06:53:41 51°13.601 2°56.1 126.3 -999 269 -999
2006-04-24 06:53:46 51°13.601 2°56.1 126.2 -999 276 -999
2006-04-24 06:53:51 51°13.601 2°56.1 126.2 -999 62 -999
2006-04-24 06:53:56 51°13.601 2°56.1 126.1 -999 80 -999
2006-04-24 06:54:01 51°13.601 2°56.1 126 -999 320 -999
2006-04-24 06:54:06 51°13.601 2°56.1 125.9 -999 301 -999
2006-04-24 06:54:11 51°13.602 2°56.1 125.8 -999 28 -999
2006-04-24 06:54:16 51°13.602 2°56.1 125.6 -999 350 -999
2006-04-24 06:54:21 51°13.602 2°56.1 125.6 -999 258 -999
2006-04-24 06:54:26 51°13.602 2°56.1 125.5 -999 324 -999
2006-04-24 06:54:31 51°13.602 2°56.1 125.5 -999 45 -999
2006-04-24 06:54:36 51°13.602 2°56.1 125.5 -999 234 -999
2006-04-24 06:54:41 51°13.601 2°56.1 125.5 -999 165 -999
2006-04-24 06:54:46 51°13.601 2°56.1 125.5 -999 195 -999
2006-04-24 06:54:51 51°13.601 2°56.1 125.5 -999 227 -999
2006-04-24 06:54:56 51°13.601 2°56.1 125.6 -999 136 -999
2006-04-24 06:55:01 51°13.601 2°56.1 125.6 -999 211 -999
2006-04-24 06:55:06 51°13.601 2°56.1 125.7 -999 164 -999
2006-04-24 06:55:11 51°13.601 2°56.1 125.8 -999 242 -999
2006-04-24 06:55:16 51°13.601 2°56.1 125.9 -999 99 -999
2006-04-24 06:55:21 51°13.601 2°56.1 125.9 -999 247 -999
2006-04-24 06:55:26 51°13.602 2°56.1 126 -999 31 -999
2006-04-24 06:55:31 51°13.602 2°56.1 126 -999 204 -999
2006-04-24 06:55:36 51°13.602 2°56.1 126 -999 67 -999
2006-04-24 06:55:41 51°13.602 2°56.1 126 -999 326 -999
2006-04-24 06:55:46 51°13.601 2°56.1 126 -999 7 -999
2006-04-24 06:55:51 51°13.601 2°56.099 126.1 -999 298 -999
2006-04-24 06:55:56 51°13.601 2°56.1 126.1 -999 350 -999
2006-04-24 06:56:01 51°13.601 2°56.1 126.1 -999 106 -999
2006-04-24 06:56:06 51°13.602 2°56.1 126.1 -999 127 -999
2006-04-24 06:56:11 51°13.602 2°56.1 126.1 -999 304 -999
2006-04-24 06:56:16 51°13.602 2°56.1 126 -999 4 -999
2006-04-24 06:56:21 51°13.602 2°56.1 126 -999 178 -999
2006-04-24 06:56:26 51°13.602 2°56.1 125.9 -999 112 -999
2006-04-24 06:56:31 51°13.602 2°56.099 125.9 -999 212 -999
2006-04-24 06:56:36 51°13.602 2°56.099 125.9 -999 84 -999
2006-04-24 06:56:41 51°13.602 2°56.099 125.9 -999 80 -999
2006-04-24 06:56:46 51°13.602 2°56.099 125.9 -999 12 -999
2006-04-24 06:56:51 51°13.602 2°56.099 125.9 -999 273 -999
2006-04-24 06:56:55 51°13.602 2°56.099 125.8 -999 303 -999
2006-04-24 06:57:01 51°13.602 2°56.099 125.6 -999 266 -999
2006-04-24 06:57:06 51°13.602 2°56.099 125.5 -999 312 -999
2006-04-24 06:57:11 51°13.602 2°56.099 125.5 -999 150 -999
2006-04-24 06:57:15 51°13.602 2°56.099 125.5 -999 98 -999
2006-04-24 06:57:21 51°13.602 2°56.099 125.5 -999 271 -999
2006-04-24 06:57:26 51°13.602 2°56.099 125.4 -999 310 -999
2006-04-24 06:57:31 51°13.602 2°56.099 125.4 -999 327 -999
2006-04-24 06:57:35 51°13.602 2°56.099 125.4 -999 262 -999
2006-04-24 06:57:41 51°13.602 2°56.099 125.4 -999 300 -999
2006-04-24 06:57:46 51°13.602 2°56.099 125.4 -999 252 -999
2006-04-24 06:57:51 51°13.602 2°56.099 125.5 -999 211 -999
2006-04-24 06:57:56 51°13.602 2°56.099 125.5 -999 244 -999
2006-04-24 06:58:01 51°13.602 2°56.099 125.6 -999 163 -999
2006-04-24 06:58:06 51°13.602 2°56.099 125.7 -999 241 -999
2006-04-24 06:58:11 51°13.602 2°56.099 125.8 -999 115 -999
2006-04-24 06:58:16 51°13.602 2°56.099 125.9 -999 94 -999
2006-04-24 06:58:21 51°13.602 2°56.099 125.9 -999 201 -999
2006-04-24 06:58:26 51°13.602 2°56.099 125.9 -999 226 -999
2006-04-24 06:58:31 51°13.602 2°56.099 126 -999 338 -999
2006-04-24 06:58:36 51°13.602 2°56.099 126 -999 22 -999
2006-04-24 06:58:41 51°13.602 2°56.099 126.1 -999 231 -999
2006-04-24 06:58:46 51°13.602 2°56.099 126.1 -999 61 -999
2006-04-24 06:58:51 51°13.602 2°56.099 126.2 -999 164 -999
2006-04-24 06:58:56 51°13.602 2°56.099 126.3 0.1 71 -999
2006-04-24 06:59:01 51°13.602 2°56.099 126.4 -999 155 -999
2006-04-24 06:59:06 51°13.602 2°56.099 126.6 0.1 102 -999
2006-04-24 06:59:11 51°13.602 2°56.099 126.7 -999 194 -999
2006-04-24 06:59:15 51°13.602 2°56.099 127 -999 60 -999
2006-04-24 06:59:21 51°13.602 2°56.099 127 -999 144 -999
2006-04-24 06:59:26 51°13.602 2°56.099 127.3 -999 37 -999
2006-04-24 06:59:31 51°13.602 2°56.099 127.4 -999 246 -999
2006-04-24 06:59:35 51°13.602 2°56.099 127.4 -999 221 -999
2006-04-24 06:59:41 51°13.602 2°56.099 127.3 -999 267 -999
2006-04-24 06:59:46 51°13.603 2°56.099 127.2 -999 342 -999
2006-04-24 06:59:51 51°13.603 2°56.098 127 -999 293 -999
2006-04-24 06:59:56 51°13.603 2°56.098 126.8 -999 313 -999
2006-04-24 07:00:01 51°13.603 2°56.098 126.5 -999 272 -999
2006-04-24 07:00:06 51°13.603 2°56.098 126.2 -999 270 -999
2006-04-24 07:00:11 51°13.603 2°56.098 126 0.1 242 -999
2006-04-24 07:00:16 51°13.603 2°56.098 125.8 -999 278 -999
2006-04-24 07:00:21 51°13.603 2°56.098 125.5 -999 251 -999
2006-04-24 07:00:25 51°13.602 2°56.098 125.4 -999 357 -999
2006-04-24 07:00:31 51°13.602 2°56.098 125.2 -999 233 -999
2006-04-24 07:00:35 51°13.603 2°56.098 125.2 -999 348 -999
2006-04-24 07:00:41 51°13.603 2°56.098 125.2 -999 194 -999
2006-04-24 07:00:45 51°13.603 2°56.098 125.2 -999 96 -999
2006-04-24 07:00:50 51°13.603 2°56.098 125.3 -999 139 -999
2006-04-24 07:00:55 51°13.603 2°56.098 125.5 -999 120 -999
2006-04-24 07:01:01 51°13.603 2°56.098 125.7 -999 160 -999
2006-04-24 07:01:05 51°13.603 2°56.099 126 -999 121 -999
2006-04-24 07:01:10 51°13.603 2°56.099 126.2 -999 165 -999
2006-04-24 07:01:15 51°13.603 2°56.099 126.6 -999 106 -999
2006-04-24 07:01:21 51°13.603 2°56.099 127 -999 231 -999
2006-04-24 07:01:25 51°13.603 2°56.099 127.3 -999 305 -999
2006-04-24 07:01:31 51°13.603 2°56.099 127.5 0.1 254 -999
2006-04-24 07:01:35 51°13.603 2°56.098 127.7 -999 236 -999
2006-04-24 07:01:41 51°13.603 2°56.098 127.8 -999 272 -999
2006-04-24 07:01:46 51°13.603 2°56.099 127.8 -999 57 -999
2006-04-24 07:01:51 51°13.603 2°56.098 127.7 -999 26 -999
2006-04-24 07:01:55 51°13.603 2°56.098 127.3 -999 348 -999
2006-04-24 07:02:01 51°13.603 2°56.099 127 -999 146 -999
2006-04-24 07:02:06 51°13.603 2°56.099 126.8 -999 52 -999
2006-04-24 07:02:11 51°13.603 2°56.099 126.6 -999 266 -999
2006-04-24 07:02:15 51°13.603 2°56.098 126.4 -999 293 -999
2006-04-24 07:02:20 51°13.603 2°56.098 126.4 -999 273 -999
2006-04-24 07:02:25 51°13.603 2°56.098 126.5 -999 240 -999
2006-04-24 07:02:31 51°13.603 2°56.098 126.6 -999 246 -999
2006-04-24 07:02:35 51°13.603 2°56.098 126.6 -999 277 -999
2006-04-24 07:02:40 51°13.603 2°56.098 126.6 0.1 290 -999
2006-04-24 07:02:45 51°13.603 2°56.098 126.6 0.1 300 -999
2006-04-24 07:02:51 51°13.603 2°56.098 126.6 -999 293 -999
2006-04-24 07:02:55 51°13.603 2°56.098 126.4 -999 304 -999
2006-04-24 07:03:01 51°13.603 2°56.098 126 -999 14 -999
2006-04-24 07:03:05 51°13.603 2°56.098 125.5 -999 60 -999
2006-04-24 07:03:10 51°13.603 2°56.098 125.4 -999 277 -999
2006-04-24 07:03:15 51°13.603 2°56.098 125.4 -999 200 -999
2006-04-24 07:03:21 51°13.603 2°56.098 125.4 -999 142 -999
2006-04-24 07:03:25 51°13.603 2°56.098 125.5 -999 136 -999
2006-04-24 07:03:30 51°13.603 2°56.098 125.6 -999 115 -999
2006-04-24 07:03:35 51°13.603 2°56.098 125.8 -999 189 -999
2006-04-24 07:03:41 51°13.603 2°56.098 126 -999 183 -999
2006-04-24 07:03:45 51°13.603 2°56.098 126.2 -999 169 -999
2006-04-24 07:03:51 51°13.603 2°56.098 126.3 -999 105 -999
2006-04-24 07:03:55 51°13.603 2°56.098 126.4 -999 255 -999
2006-04-24 07:04:00 51°13.602 2°56.099 126.6 -999 12 -999
2006-04-24 07:04:06 51°13.602 2°56.098 126.6 -999 200 -999
2006-04-24 07:04:11 51°13.602 2°56.098 126.6 -999 259 -999
2006-04-24 07:04:15 51°13.602 2°56.098 126.7 -999 222 -999
2006-04-24 07:04:20 51°13.602 2°56.099 126.7 -999 21 -999
2006-04-24 07:04:26 51°13.602 2°56.099 126.7 -999 261 -999
2006-04-24 07:04:31 51°13.602 2°56.099 126.7 -999 42 -999
2006-04-24 07:04:35 51°13.602 2°56.099 126.7 -999 154 -999
2006-04-24 07:04:40 51°13.602 2°56.099 126.7 -999 18 -999
2006-04-24 07:04:46 51°13.602 2°56.099 126.7 -999 148 -999
2006-04-24 07:04:51 51°13.602 2°56.099 126.6 -999 96 -999
2006-04-24 07:04:55 51°13.602 2°56.099 126.6 -999 255 -999
2006-04-24 07:05:01 51°13.602 2°56.099 126.6 -999 82 -999
2006-04-24 07:05:05 51°13.602 2°56.099 126.6 -999 133 -999
2006-04-24 07:05:11 51°13.602 2°56.099 126.6 -999 88 -999
2006-04-24 07:05:15 51°13.602 2°56.099 126.6 -999 180 -999
2006-04-24 07:05:21 51°13.602 2°56.099 127 -999 265 -999
2006-04-24 07:05:25 51°13.602 2°56.099 127 -999 307 -999
2006-04-24 07:05:30 51°13.602 2°56.099 127.3 -999 274 -999
2006-04-24 07:05:35 51°13.602 2°56.099 127.5 0.1 279 -999
2006-04-24 07:05:41 51°13.602 2°56.099 127.6 0.1 322 -999
2006-04-24 07:05:45 51°13.602 2°56.099 127.6 -999 355 -999
2006-04-24 07:05:50 51°13.602 2°56.099 127.5 -999 7 -999
2006-04-24 07:05:55 51°13.602 2°56.099 127 -999 348 -999
2006-04-24 07:06:01 51°13.602 2°56.099 126.7 -999 73 -999
2006-04-24 07:06:06 51°13.602 2°56.099 126.4 -999 153 -999
2006-04-24 07:06:11 51°13.602 2°56.099 126.2 -999 152 -999
2006-04-24 07:06:15 51°13.602 2°56.099 126.1 -999 84 -999
2006-04-24 07:06:21 51°13.602 2°56.099 126 -999 185 -999
2006-04-24 07:06:26 51°13.602 2°56.099 126 -999 196 -999
2006-04-24 07:06:31 51°13.602 2°56.099 126.1 -999 219 -999
2006-04-24 07:06:35 51°13.602 2°56.099 126.3 -999 85 -999
2006-04-24 07:06:40 51°13.602 2°56.099 126.6 -999 227 -999
2006-04-24 07:06:45 51°13.602 2°56.099 126.8 -999 349 -999
2006-04-24 07:06:50 51°13.602 2°56.099 127 -999 247 -999
2006-04-24 07:06:55 51°13.602 2°56.099 127 -999 304 -999
2006-04-24 07:07:00 51°13.602 2°56.099 127 -999 11 -999
2006-04-24 07:07:05 51°13.602 2°56.099 126.7 0.1 22 -999
2006-04-24 07:07:10 51°13.602 2°56.099 126.5 -999 21 -999
2006-04-24 07:07:15 51°13.602 2°56.099 126.2 0.1 44 -999
2006-04-24 07:07:20 51°13.602 2°56.099 126 -999 42 -999
2006-04-24 07:07:25 51°13.602 2°56.099 126 -999 64 -999
2006-04-24 07:07:30 51°13.602 2°56.099 126 -999 90 -999
2006-04-24 07:07:35 51°13.602 2°56.099 126 -999 144 -999
2006-04-24 07:07:40 51°13.602 2°56.099 126 -999 165 -999
2006-04-24 07:07:45 51°13.602 2°56.099 126 -999 129 -999
2006-04-24 07:07:50 51°13.602 2°56.099 126.2 -999 213 -999
2006-04-24 07:07:55 51°13.602 2°56.099 126.3 -999 232 -999
2006-04-24 07:08:00 51°13.601 2°56.099 126.6 -999 229 -999
2006-04-24 07:08:05 51°13.601 2°56.099 126.7 -999 320 -999
2006-04-24 07:08:10 51°13.602 2°56.099 127 -999 271 -999
2006-04-24 07:08:15 51°13.602 2°56.099 127 -999 39 -999
2006-04-24 07:08:20 51°13.602 2°56.099 127 -999 56 -999
2006-04-24 07:08:25 51°13.602 2°56.099 127 -999 43 -999
2006-04-24 07:08:30 51°13.602 2°56.099 127.1 -999 170 -999
2006-04-24 07:08:35 51°13.602 2°56.099 127 -999 64 -999
2006-04-24 07:08:41 51°13.602 2°56.099 126.9 -999 156 -999
2006-04-24 07:08:46 51°13.602 2°56.099 126.7 -999 49 -999
2006-04-24 07:08:51 51°13.602 2°56.099 126.7 -999 6 -999
2006-04-24 07:08:56 51°13.602 2°56.099 126.7 -999 330 -999
2006-04-24 07:09:01 51°13.602 2°56.099 126.7 -999 261 -999
2006-04-24 07:09:06 51°13.602 2°56.099 126.7 -999 323 -999
2006-04-24 07:09:11 51°13.602 2°56.099 126.8 -999 193 -999
2006-04-24 07:09:16 51°13.602 2°56.099 126.8 -999 151 -999
2006-04-24 07:09:21 51°13.602 2°56.099 126.8 -999 90 -999
2006-04-24 07:09:26 51°13.602 2°56.099 126.8 -999 53 -999
2006-04-24 07:09:31 51°13.602 2°56.099 126.8 -999 197 -999
2006-04-24 07:09:36 51°13.602 2°56.099 126.8 -999 250 -999
2006-04-24 07:09:41 51°13.602 2°56.099 126.8 -999 238 -999
2006-04-24 07:09:46 51°13.602 2°56.099 126.8 -999 2 -999
2006-04-24 07:09:51 51°13.602 2°56.099 126.8 -999 265 -999
2006-04-24 07:09:56 51°13.602 2°56.099 126.8 -999 4 -999
2006-04-24 07:10:01 51°13.601 2°56.099 126.8 -999 296 -999
2006-04-24 07:10:06 51°13.602 2°56.099 126.8 -999 4 -999
2006-04-24 07:10:11 51°13.601 2°56.099 126.7 -999 226 -999
2006-04-24 07:10:16 51°13.601 2°56.099 126.6 -999 337 -999
2006-04-24 07:10:21 51°13.601 2°56.099 126.5 -999 209 -999
2006-04-24 07:10:26 51°13.601 2°56.099 126.5 -999 268 -999
2006-04-24 07:10:31 51°13.601 2°56.099 126.4 -999 56 -999
2006-04-24 07:10:36 51°13.601 2°56.099 126.3 -999 164 -999
2006-04-24 07:10:41 51°13.601 2°56.099 126.2 -999 201 -999
2006-04-24 07:10:46 51°13.601 2°56.099 126.2 -999 36 -999
2006-04-24 07:10:51 51°13.601 2°56.099 126.2 -999 197 -999
2006-04-24 07:10:56 51°13.601 2°56.099 126.2 -999 94 -999
2006-04-24 07:11:01 51°13.601 2°56.099 126.2 -999 339 -999
2006-04-24 07:11:06 51°13.601 2°56.099 126.3 -999 250 -999
2006-04-24 07:11:11 51°13.601 2°56.099 126.4 -999 17 -999
2006-04-24 07:11:16 51°13.601 2°56.099 126.4 -999 308 -999
2006-04-24 07:11:21 51°13.601 2°56.099 126.4 0.1 296 -999
2006-04-24 07:11:26 51°13.601 2°56.099 126.4 -999 336 -999
2006-04-24 07:11:31 51°13.601 2°56.099 126.4 -999 118 -999
2006-04-24 07:11:36 51°13.602 2°56.099 126.2 -999 61 -999
2006-04-24 07:11:41 51°13.603 2°56.1 126.2 -999 172 -999
2006-04-24 07:11:46 51°13.603 2°56.1 126.2 -999 137 -999
2006-04-24 07:11:51 51°13.602 2°56.099 126.2 0.1 176 -999
2006-04-24 07:11:56 51°13.601 2°56.099 126.2 -999 124 -999
2006-04-24 07:12:01 51°13.601 2°56.099 126.2 -999 123 -999
2006-04-24 07:12:06 51°13.601 2°56.099 126.2 -999 161 -999
2006-04-24 07:12:11 51°13.601 2°56.099 126.2 -999 254 -999
2006-04-24 07:12:16 51°13.601 2°56.099 126.4 -999 287 -999
2006-04-24 07:12:21 51°13.601 2°56.099 126.6 -999 284 -999
2006-04-24 07:12:26 51°13.601 2°56.099 126.8 -999 270 -999
2006-04-24 07:12:31 51°13.602 2°56.099 127 -999 285 -999
2006-04-24 07:12:36 51°13.602 2°56.099 127 -999 321 -999
2006-04-24 07:12:41 51°13.602 2°56.099 127 -999 281 -999
2006-04-24 07:12:46 51°13.601 2°56.098 127 -999 32 -999
2006-04-24 07:12:51 51°13.6 2°56.098 126.8 -999 241 -999
2006-04-24 07:12:56 51°13.599 2°56.098 126.6 -999 65 -999
2006-04-24 07:13:01 51°13.598 2°56.097 126.3 -999 139 -999
2006-04-24 07:13:06 51°13.596 2°56.097 126.2 -999 104 -999
2006-04-24 07:13:11 51°13.598 2°56.097 126 -999 144 -999
2006-04-24 07:13:16 51°13.601 2°56.099 126 -999 164 -999
2006-04-24 07:13:21 51°13.603 2°56.1 126 -999 112 -999
2006-04-24 07:13:26 51°13.604 2°56.1 126 -999 209 -999
2006-04-24 07:13:31 51°13.605 2°56.1 126.2 -999 263 -999
2006-04-24 07:13:36 51°13.606 2°56.101 126.3 -999 266 -999
2006-04-24 07:13:41 51°13.606 2°56.101 126.6 -999 150 -999
2006-04-24 07:13:46 51°13.605 2°56.101 126.7 -999 179 -999
2006-04-24 07:13:51 51°13.605 2°56.101 126.8 -999 128 -999
2006-04-24 07:13:56 51°13.605 2°56.101 126.8 -999 114 -999
2006-04-24 07:14:01 51°13.604 2°56.101 126.8 -999 148 -999
2006-04-24 07:14:06 51°13.601 2°56.1 126.8 -999 167 -999
2006-04-24 07:14:11 51°13.6 2°56.099 126.9 -999 250 -999
2006-04-24 07:14:16 51°13.6 2°56.099 127 -999 301 -999
2006-04-24 07:14:21 51°13.6 2°56.099 127 -999 298 -999
2006-04-24 07:14:26 51°13.6 2°56.099 127 -999 254 -999
2006-04-24 07:14:31 51°13.6 2°56.099 127 -999 355 -999
2006-04-24 07:14:36 51°13.6 2°56.099 127 -999 5 -999
2006-04-24 07:14:41 51°13.6 2°56.099 126.9 0.1 39 -999
2006-04-24 07:14:46 51°13.6 2°56.099 126.7 0.1 20 -999
2006-04-24 07:14:51 51°13.601 2°56.1 126.6 -999 29 -999
2006-04-24 07:14:56 51°13.601 2°56.1 126.4 -999 122 -999
2006-04-24 07:15:01 51°13.602 2°56.1 126.3 -999 46 -999
2006-04-24 07:15:06 51°13.603 2°56.1 126.3 -999 183 -999
2006-04-24 07:15:11 51°13.603 2°56.101 126.3 -999 256 -999
2006-04-24 07:15:16 51°13.604 2°56.101 126.3 -999 259 -999
2006-04-24 07:15:21 51°13.604 2°56.101 126.3 -999 304 -999
2006-04-24 07:15:26 51°13.604 2°56.101 126.3 -999 272 -999
2006-04-24 07:15:31 51°13.604 2°56.101 126.3 -999 313 -999
2006-04-24 07:15:36 51°13.604 2°56.101 126.4 -999 348 -999
2006-04-24 07:15:41 51°13.604 2°56.101 126.4 -999 41 -999
2006-04-24 07:15:46 51°13.604 2°56.101 126.2 -999 237 -999
2006-04-24 07:15:51 51°13.603 2°56.1 126 -999 139 -999
2006-04-24 07:15:56 51°13.603 2°56.1 125.7 -999 133 -999
2006-04-24 07:16:01 51°13.603 2°56.1 125.5 -999 77 -999
2006-04-24 07:16:06 51°13.603 2°56.1 125.5 -999 218 -999
2006-04-24 07:16:11 51°13.603 2°56.1 125.5 -999 211 -999
2006-04-24 07:16:16 51°13.603 2°56.1 125.6 -999 194 -999
2006-04-24 07:16:21 51°13.603 2°56.1 125.9 -999 230 -999
2006-04-24 07:16:26 51°13.603 2°56.1 126 -999 194 -999
2006-04-24 07:16:31 51°13.603 2°56.1 126.2 -999 259 -999
2006-04-24 07:16:36 51°13.602 2°56.1 126.3 -999 187 -999
2006-04-24 07:16:41 51°13.602 2°56.1 126.4 -999 73 -999
2006-04-24 07:16:46 51°13.601 2°56.1 126.4 -999 191 -999
2006-04-24 07:16:51 51°13.601 2°56.1 126.4 -999 76 -999
2006-04-24 07:16:56 51°13.601 2°56.1 126.3 -999 56 -999
2006-04-24 07:17:01 51°13.601 2°56.1 126.2 -999 28 -999
2006-04-24 07:17:06 51°13.601 2°56.1 126.2 -999 239 -999
2006-04-24 07:17:11 51°13.601 2°56.1 126.2 -999 101 -999
2006-04-24 07:17:16 51°13.601 2°56.1 126.2 -999 70 -999
2006-04-24 07:17:21 51°13.601 2°56.1 126.2 -999 218 -999
2006-04-24 07:17:26 51°13.601 2°56.1 126.2 -999 144 -999
2006-04-24 07:17:31 51°13.601 2°56.1 126.3 -999 51 -999
2006-04-24 07:17:36 51°13.601 2°56.1 126.3 -999 17 -999
2006-04-24 07:17:41 51°13.601 2°56.1 126.3 -999 229 -999
2006-04-24 07:17:46 51°13.602 2°56.1 126.3 -999 210 -999
2006-04-24 07:17:51 51°13.602 2°56.1 126.4 -999 275 -999
2006-04-24 07:17:56 51°13.602 2°56.1 126.4 -999 234 -999
2006-04-24 07:18:01 51°13.602 2°56.1 126.4 -999 18 -999
2006-04-24 07:18:06 51°13.602 2°56.1 126.6 -999 189 -999
2006-04-24 07:18:11 51°13.602 2°56.1 126.6 -999 238 -999
2006-04-24 07:18:16 51°13.602 2°56.1 126.6 -999 234 -999
2006-04-24 07:18:21 51°13.602 2°56.1 126.7 -999 327 -999
2006-04-24 07:18:26 51°13.602 2°56.1 126.7 0.1 272 -999
2006-04-24 07:18:31 51°13.602 2°56.1 126.7 -999 298 -999
2006-04-24 07:18:36 51°13.602 2°56.1 126.7 -999 239 -999
2006-04-24 07:18:41 51°13.602 2°56.1 126.7 -999 -999 -999
2006-04-24 07:18:46 51°13.602 2°56.1 126.5 -999 162 -999
2006-04-24 07:18:51 51°13.602 2°56.1 126.3 -999 91 -999
2006-04-24 07:18:56 51°13.602 2°56.1 126 -999 136 -999
2006-04-24 07:19:01 51°13.602 2°56.1 125.8 -999 5 -999
2006-04-24 07:19:06 51°13.602 2°56.1 125.5 -999 286 -999
2006-04-24 07:19:11 51°13.602 2°56.099 125.5 -999 271 -999
2006-04-24 07:19:16 51°13.602 2°56.099 125.4 -999 282 -999
2006-04-24 07:19:21 51°13.602 2°56.099 125.4 -999 227 -999
2006-04-24 07:19:26 51°13.602 2°56.099 125.4 -999 18 -999
2006-04-24 07:19:31 51°13.602 2°56.099 125.4 -999 216 -999
2006-04-24 07:19:36 51°13.602 2°56.099 125.4 -999 19 -999
2006-04-24 07:19:41 51°13.602 2°56.099 125.2 -999 140 -999
2006-04-24 07:19:46 51°13.602 2°56.099 125.1 -999 296 -999
2006-04-24 07:19:51 51°13.602 2°56.099 125.1 -999 246 -999
2006-04-24 07:19:56 51°13.602 2°56.099 125 -999 18 -999
2006-04-24 07:20:01 51°13.602 2°56.099 125 -999 358 -999
2006-04-24 07:20:06 51°13.602 2°56.099 125 -999 324 -999
2006-04-24 07:20:11 51°13.602 2°56.099 125 -999 126 -999
2006-04-24 07:20:16 51°13.602 2°56.099 125 -999 60 -999
2006-04-24 07:20:21 51°13.602 2°56.099 125 -999 98 -999
2006-04-24 07:20:26 51°13.602 2°56.099 125.1 -999 348 -999
2006-04-24 07:20:31 51°13.602 2°56.099 125.2 -999 124 -999
2006-04-24 07:20:36 51°13.602 2°56.099 125.5 -999 88 -999
2006-04-24 07:20:41 51°13.602 2°56.099 125.5 -999 74 -999
2006-04-24 07:20:46 51°13.602 2°56.099 125.7 -999 65 -999
2006-04-24 07:20:51 51°13.601 2°56.099 126 -999 186 -999
2006-04-24 07:20:56 51°13.601 2°56.099 126.2 -999 148 -999
2006-04-24 07:21:01 51°13.601 2°56.099 126.3 -999 127 -999
2006-04-24 07:21:06 51°13.601 2°56.099 126.4 -999 144 -999
2006-04-24 07:21:11 51°13.601 2°56.099 126.6 -999 94 -999
2006-04-24 07:21:16 51°13.602 2°56.099 126.7 -999 330 -999
2006-04-24 07:21:21 51°13.602 2°56.099 126.8 -999 146 -999
2006-04-24 07:21:26 51°13.602 2°56.099 127 -999 140 -999
2006-04-24 07:21:31 51°13.602 2°56.099 127 -999 67 -999
2006-04-24 07:21:36 51°13.602 2°56.099 127 -999 134 -999
2006-04-24 07:21:41 51°13.602 2°56.099 127 -999 139 -999
2006-04-24 07:21:46 51°13.602 2°56.099 127 -999 193 -999
2006-04-24 07:21:51 51°13.602 2°56.099 127 -999 91 -999
2006-04-24 07:21:56 51°13.602 2°56.099 126.9 -999 212 -999
2006-04-24 07:22:01 51°13.602 2°56.099 126.8 -999 8 -999
2006-04-24 07:22:06 51°13.602 2°56.099 126.7 -999 11 -999
2006-04-24 07:22:11 51°13.602 2°56.099 126.7 -999 335 -999
2006-04-24 07:22:16 51°13.602 2°56.099 126.7 -999 288 -999
2006-04-24 07:22:21 51°13.602 2°56.099 126.7 -999 304 -999
2006-04-24 07:22:26 51°13.602 2°56.099 126.7 -999 302 -999
2006-04-24 07:22:31 51°13.602 2°56.099 126.8 -999 310 -999
2006-04-24 07:22:36 51°13.602 2°56.099 126.8 -999 322 -999
2006-04-24 07:22:41 51°13.602 2°56.099 126.8 -999 58 -999
2006-04-24 07:22:46 51°13.602 2°56.099 126.7 -999 4 -999
2006-04-24 07:22:51 51°13.602 2°56.099 126.4 -999 135 -999
2006-04-24 07:22:56 51°13.602 2°56.099 126.2 -999 27 -999
2006-04-24 07:23:01 51°13.602 2°56.099 126 -999 239 -999
2006-04-24 07:23:06 51°13.602 2°56.099 125.8 -999 86 -999
2006-04-24 07:23:11 51°13.602 2°56.099 125.6 -999 253 -999
2006-04-24 07:23:16 51°13.602 2°56.099 125.5 -999 288 -999
2006-04-24 07:23:21 51°13.602 2°56.099 125.5 -999 269 -999
2006-04-24 07:23:26 51°13.602 2°56.099 125.6 -999 218 -999
2006-04-24 07:23:31 51°13.602 2°56.099 125.8 -999 242 -999
2006-04-24 07:23:36 51°13.602 2°56.099 126 -999 255 -999
2006-04-24 07:23:41 51°13.602 2°56.099 126.1 -999 82 -999
2006-04-24 07:23:46 51°13.602 2°56.099 126.2 -999 114 -999
2006-04-24 07:23:51 51°13.602 2°56.098 126.2 -999 218 -999
2006-04-24 07:23:56 51°13.602 2°56.099 126.2 -999 173 -999
2006-04-24 07:24:01 51°13.602 2°56.099 126.2 -999 77 -999
2006-04-24 07:24:06 51°13.602 2°56.099 126.2 -999 98 -999
2006-04-24 07:24:11 51°13.602 2°56.099 126.1 -999 70 -999
2006-04-24 07:24:16 51°13.602 2°56.099 126.1 -999 133 -999
2006-04-24 07:24:21 51°13.602 2°56.099 126.1 -999 192 -999
2006-04-24 07:24:26 51°13.602 2°56.099 126.1 -999 232 -999
2006-04-24 07:24:31 51°13.602 2°56.099 126.1 -999 55 -999
2006-04-24 07:24:36 51°13.602 2°56.098 126.2 -999 149 -999
2006-04-24 07:24:41 51°13.602 2°56.099 126.2 -999 47 -999
2006-04-24 07:24:46 51°13.602 2°56.098 126.3 -999 241 -999
2006-04-24 07:24:51 51°13.602 2°56.099 126.3 -999 67 -999
2006-04-24 07:24:56 51°13.602 2°56.099 126.3 -999 159 -999
2006-04-24 07:25:01 51°13.602 2°56.099 126.3 -999 67 -999
2006-04-24 07:25:06 51°13.602 2°56.099 126.4 -999 264 -999
2006-04-24 07:25:11 51°13.602 2°56.099 126.3 -999 24 -999
2006-04-24 07:25:16 51°13.602 2°56.099 126.2 -999 211 -999
2006-04-24 07:25:21 51°13.602 2°56.099 126.1 -999 357 -999
2006-04-24 07:25:26 51°13.602 2°56.099 126 -999 252 -999
2006-04-24 07:25:31 51°13.602 2°56.099 125.9 -999 2 -999
2006-04-24 07:25:36 51°13.602 2°56.099 125.8 -999 272 -999
2006-04-24 07:25:41 51°13.602 2°56.099 125.8 -999 316 -999
2006-04-24 07:25:46 51°13.602 2°56.099 125.7 -999 255 -999
2006-04-24 07:25:51 51°13.602 2°56.099 125.6 -999 277 -999
2006-04-24 07:25:56 51°13.602 2°56.099 125.5 -999 127 -999
2006-04-24 07:26:01 51°13.602 2°56.099 125.5 -999 43 -999
2006-04-24 07:26:06 51°13.602 2°56.099 125.2 -999 324 -999
2006-04-24 07:26:11 51°13.602 2°56.099 125 -999 39 -999
2006-04-24 07:26:16 51°13.602 2°56.099 124.8 -999 25 -999
2006-04-24 07:26:21 51°13.602 2°56.099 124.8 -999 11 -999
2006-04-24 07:26:26 51°13.602 2°56.099 124.8 -999 285 -999
2006-04-24 07:26:31 51°13.602 2°56.099 124.8 -999 171 -999
2006-04-24 07:26:36 51°13.602 2°56.099 124.9 -999 137 -999
2006-04-24 07:26:41 51°13.602 2°56.099 125 -999 74 -999
2006-04-24 07:26:46 51°13.602 2°56.099 125 -999 205 -999
2006-04-24 07:26:51 51°13.602 2°56.099 125 -999 75 -999
2006-04-24 07:26:56 51°13.602 2°56.099 125 -999 113 -999
2006-04-24 07:27:01 51°13.602 2°56.099 125 -999 25 -999
2006-04-24 07:27:06 51°13.602 2°56.099 125 -999 357 -999
2006-04-24 07:27:11 51°13.602 2°56.099 124.9 0.1 13 -999
2006-04-24 07:27:16 51°13.602 2°56.099 124.9 -999 176 -999
2006-04-24 07:27:21 51°13.602 2°56.099 124.9 -999 38 -999
2006-04-24 07:27:26 51°13.602 2°56.099 124.9 -999 213 -999
2006-04-24 07:27:31 51°13.602 2°56.099 125 -999 315 -999
2006-04-24 07:27:36 51°13.602 2°56.099 125 -999 205 -999
2006-04-24 07:27:41 51°13.602 2°56.099 125.2 -999 332 -999
2006-04-24 07:27:46 51°13.602 2°56.099 125.4 -999 206 -999
2006-04-24 07:27:51 51°13.602 2°56.099 125.5 -999 67 -999
2006-04-24 07:27:56 51°13.602 2°56.099 125.6 -999 218 -999
2006-04-24 07:28:01 51°13.602 2°56.099 125.9 -999 75 -999
2006-04-24 07:28:06 51°13.602 2°56.099 126.1 0.1 187 -999
2006-04-24 07:28:11 51°13.602 2°56.099 126.2 -999 236 -999
2006-04-24 07:28:16 51°13.602 2°56.099 126.2 0.1 185 -999
2006-04-24 07:28:21 51°13.602 2°56.099 126.2 -999 72 -999
2006-04-24 07:28:26 51°13.602 2°56.099 126.2 -999 164 -999
2006-04-24 07:28:31 51°13.602 2°56.099 126.2 -999 211 -999
2006-04-24 07:28:36 51°13.602 2°56.099 126.2 -999 220 -999
2006-04-24 07:28:41 51°13.602 2°56.099 126.3 -999 251 -999
2006-04-24 07:28:46 51°13.602 2°56.1 126.4 -999 62 -999
2006-04-24 07:28:51 51°13.602 2°56.1 126.4 -999 238 -999
2006-04-24 07:28:56 51°13.602 2°56.1 126.4 -999 47 -999
2006-04-24 07:29:01 51°13.602 2°56.1 126.4 -999 200 -999
2006-04-24 07:29:06 51°13.602 2°56.099 126.3 -999 265 -999
2006-04-24 07:29:11 51°13.602 2°56.099 126.2 0.1 219 -999
2006-04-24 07:29:16 51°13.602 2°56.099 126.2 -999 259 -999
2006-04-24 07:29:21 51°13.602 2°56.099 126.2 -999 258 -999
2006-04-24 07:29:26 51°13.602 2°56.099 126.1 -999 344 -999
2006-04-24 07:29:31 51°13.602 2°56.099 126 -999 291 -999
2006-04-24 07:29:36 51°13.602 2°56.099 125.9 -999 264 -999
2006-04-24 07:29:41 51°13.602 2°56.099 125.7 -999 244 -999
2006-04-24 07:29:46 51°13.602 2°56.099 125.5 -999 329 -999
2006-04-24 07:29:51 51°13.602 2°56.099 125.5 -999 246 -999
2006-04-24 07:29:56 51°13.602 2°56.099 125.3 -999 318 -999
2006-04-24 07:30:01 51°13.602 2°56.099 125.2 -999 236 -999
2006-04-24 07:30:06 51°13.602 2°56.099 125.1 -999 101 -999
2006-04-24 07:30:11 51°13.601 2°56.099 125.1 -999 247 -999
2006-04-24 07:30:16 51°13.601 2°56.099 125.1 -999 13 -999
2006-04-24 07:30:21 51°13.601 2°56.099 125.1 -999 177 -999
2006-04-24 07:30:26 51°13.601 2°56.099 125.1 -999 153 -999
2006-04-24 07:30:31 51°13.601 2°56.099 125.2 -999 174 -999
2006-04-24 07:30:36 51°13.601 2°56.099 125.4 -999 73 -999
2006-04-24 07:30:41 51°13.601 2°56.099 125.5 -999 171 -999
2006-04-24 07:30:46 51°13.601 2°56.099 125.6 -999 121 -999
2006-04-24 07:30:51 51°13.601 2°56.099 125.8 -999 174 -999
2006-04-24 07:30:56 51°13.601 2°56.099 126.1 -999 108 -999
2006-04-24 07:31:01 51°13.601 2°56.099 126.2 -999 209 -999
2006-04-24 07:31:06 51°13.601 2°56.099 126.3 -999 6 -999
2006-04-24 07:31:11 51°13.601 2°56.099 126.4 -999 235 -999
2006-04-24 07:31:16 51°13.601 2°56.099 126.6 -999 30 -999
2006-04-24 07:31:21 51°13.601 2°56.099 126.6 -999 226 -999
2006-04-24 07:31:26 51°13.601 2°56.099 126.6 -999 36 -999
2006-04-24 07:31:31 51°13.601 2°56.099 126.6 -999 288 -999
2006-04-24 07:31:36 51°13.601 2°56.099 126.6 -999 347 -999
2006-04-24 07:31:41 51°13.601 2°56.099 126.4 -999 262 -999
2006-04-24 07:31:46 51°13.601 2°56.099 126.3 -999 340 -999
2006-04-24 07:31:51 51°13.601 2°56.098 126.2 0.1 259 -999
2006-04-24 07:31:56 51°13.601 2°56.098 126.1 -999 289 -999
2006-04-24 07:32:01 51°13.601 2°56.099 126 -999 276 -999
2006-04-24 07:32:06 51°13.601 2°56.099 125.9 -999 23 -999
2006-04-24 07:32:11 51°13.601 2°56.098 125.7 -999 300 -999
2006-04-24 07:32:16 51°13.601 2°56.098 125.6 -999 327 -999
2006-04-24 07:32:21 51°13.601 2°56.098 125.5 -999 288 -999
2006-04-24 07:32:26 51°13.601 2°56.098 125.4 -999 332 -999
2006-04-24 07:32:31 51°13.602 2°56.098 125.2 -999 280 -999
2006-04-24 07:32:36 51°13.602 2°56.098 125.1 -999 328 -999
2006-04-24 07:32:41 51°13.602 2°56.098 125.1 -999 238 -999
2006-04-24 07:32:46 51°13.602 2°56.098 125 -999 329 -999
2006-04-24 07:32:51 51°13.602 2°56.098 125 -999 142 -999
2006-04-24 07:32:56 51°13.602 2°56.098 125 -999 147 -999
2006-04-24 07:33:01 51°13.602 2°56.098 125 -999 73 -999
2006-04-24 07:33:06 51°13.602 2°56.098 125 -999 86 -999
2006-04-24 07:33:11 51°13.602 2°56.098 125.1 -999 75 -999
2006-04-24 07:33:16 51°13.602 2°56.098 125.1 -999 113 -999
2006-04-24 07:33:21 51°13.602 2°56.098 125.2 -999 9 -999
2006-04-24 07:33:26 51°13.602 2°56.098 125.2 -999 307 -999
2006-04-24 07:33:31 51°13.602 2°56.098 125.2 0.1 336 -999
2006-04-24 07:33:36 51°13.602 2°56.098 125.2 -999 255 -999
2006-04-24 07:33:41 51°13.602 2°56.098 125.1 0.1 66 -999
2006-04-24 07:33:46 51°13.602 2°56.098 125.1 -999 126 -999
2006-04-24 07:33:51 51°13.602 2°56.098 125.1 -999 67 -999
2006-04-24 07:33:56 51°13.602 2°56.098 125 -999 332 -999
2006-04-24 07:34:01 51°13.602 2°56.098 124.8 -999 202 -999
2006-04-24 07:34:06 51°13.602 2°56.098 124.8 -999 144 -999
2006-04-24 07:34:11 51°13.602 2°56.098 124.6 -999 154 -999
2006-04-24 07:34:16 51°13.602 2°56.098 124.4 -999 183 -999
2006-04-24 07:34:21 51°13.602 2°56.098 124.3 0.1 228 -999
2006-04-24 07:34:26 51°13.602 2°56.098 124.5 -999 185 -999
2006-04-24 07:34:31 51°13.602 2°56.098 124.8 0.1 139 -999
2006-04-24 07:34:36 51°13.602 2°56.098 125.3 0.1 134 -999
2006-04-24 07:34:41 51°13.602 2°56.098 125.7 0.1 167 -999
2006-04-24 07:34:46 51°13.602 2°56.099 126.5 -999 85 -999
2006-04-24 07:34:51 51°13.602 2°56.099 126.9 -999 317 -999
2006-04-24 07:34:56 51°13.602 2°56.099 127 0.1 -999 -999
2006-04-24 07:35:01 51°13.602 2°56.099 127 -999 33 -999
2006-04-24 07:35:06 51°13.602 2°56.099 127 0.1 47 -999
2006-04-24 07:35:11 51°13.602 2°56.099 126.6 -999 50 -999
2006-04-24 07:35:16 51°13.602 2°56.099 126.3 -999 33 -999
2006-04-24 07:35:21 51°13.602 2°56.099 126 -999 15 -999
2006-04-24 07:35:26 51°13.602 2°56.099 125.7 -999 277 -999
2006-04-24 07:35:31 51°13.602 2°56.099 125.6 -999 286 -999
2006-04-24 07:35:36 51°13.602 2°56.099 125.6 -999 271 -999
2006-04-24 07:35:41 51°13.602 2°56.099 125.6 -999 311 -999
2006-04-24 07:35:46 51°13.602 2°56.098 125.7 -999 255 -999
2006-04-24 07:35:51 51°13.602 2°56.098 125.7 -999 306 -999
2006-04-24 07:35:56 51°13.602 2°56.098 125.7 0.1 226 -999
2006-04-24 07:36:01 51°13.602 2°56.098 125.6 -999 56 -999
2006-04-24 07:36:06 51°13.602 2°56.098 125.4 -999 122 -999
2006-04-24 07:36:11 51°13.602 2°56.098 125.2 -999 51 -999
2006-04-24 07:36:16 51°13.602 2°56.098 124.9 -999 179 -999
2006-04-24 07:36:21 51°13.602 2°56.098 124.8 -999 236 -999
2006-04-24 07:36:26 51°13.602 2°56.098 124.8 -999 240 -999
2006-04-24 07:36:31 51°13.602 2°56.098 125 -999 248 -999
2006-04-24 07:36:36 51°13.602 2°56.098 125.2 -999 244 -999
2006-04-24 07:36:41 51°13.602 2°56.098 125.3 -999 177 -999
2006-04-24 07:36:46 51°13.602 2°56.098 125.4 -999 176 -999
2006-04-24 07:36:51 51°13.602 2°56.098 125.5 -999 179 -999
2006-04-24 07:36:56 51°13.602 2°56.098 125.5 -999 195 -999
2006-04-24 07:37:01 51°13.601 2°56.098 125.5 -999 199 -999
2006-04-24 07:37:06 51°13.601 2°56.098 125.6 -999 117 -999
2006-04-24 07:37:11 51°13.601 2°56.098 125.9 -999 202 -999
2006-04-24 07:37:16 51°13.601 2°56.098 126.1 -999 103 -999
2006-04-24 07:37:21 51°13.601 2°56.098 126.2 -999 82 -999
2006-04-24 07:37:26 51°13.601 2°56.098 126.2 -999 108 -999
2006-04-24 07:37:31 51°13.601 2°56.098 126.4 -999 29 -999
2006-04-24 07:37:36 51°13.601 2°56.098 126.5 -999 6 -999
2006-04-24 07:37:41 51°13.601 2°56.098 126.6 -999 78 -999
2006-04-24 07:37:46 51°13.601 2°56.098 126.6 0.1 41 -999
2006-04-24 07:37:51 51°13.601 2°56.098 126.6 -999 40 -999
2006-04-24 07:37:56 51°13.601 2°56.098 126.6 -999 49 -999
2006-04-24 07:38:01 51°13.601 2°56.098 126.4 -999 61 -999
2006-04-24 07:38:06 51°13.601 2°56.098 126.2 -999 307 -999
2006-04-24 07:38:11 51°13.601 2°56.098 126.2 -999 268 -999
2006-04-24 07:38:16 51°13.601 2°56.098 126.2 -999 272 -999
2006-04-24 07:38:21 51°13.601 2°56.098 126.2 -999 13 -999
2006-04-24 07:38:26 51°13.601 2°56.098 126.2 -999 349 -999
2006-04-24 07:38:31 51°13.601 2°56.099 126.2 -999 191 -999
2006-04-24 07:38:36 51°13.602 2°56.099 126.1 -999 38 -999
2006-04-24 07:38:41 51°13.601 2°56.099 126 -999 194 -999
2006-04-24 07:38:46 51°13.601 2°56.099 125.8 -999 329 -999
2006-04-24 07:38:51 51°13.601 2°56.099 125.8 -999 309 -999
2006-04-24 07:38:56 51°13.601 2°56.099 125.7 -999 310 -999
2006-04-24 07:39:01 51°13.601 2°56.099 125.7 -999 270 -999
2006-04-24 07:39:06 51°13.601 2°56.099 125.6 -999 305 -999
2006-04-24 07:39:11 51°13.601 2°56.099 125.5 -999 243 -999
2006-04-24 07:39:16 51°13.601 2°56.099 125.5 -999 5 -999
2006-04-24 07:39:21 51°13.601 2°56.099 125.5 -999 271 -999
2006-04-24 07:39:26 51°13.602 2°56.099 125.5 -999 327 -999
2006-04-24 07:39:31 51°13.602 2°56.099 125.5 -999 245 -999
2006-04-24 07:39:36 51°13.602 2°56.099 125.5 -999 15 -999
2006-04-24 07:39:41 51°13.602 2°56.099 125.5 -999 341 -999
2006-04-24 07:39:46 51°13.602 2°56.099 125.5 -999 74 -999
2006-04-24 07:39:51 51°13.602 2°56.099 125.5 -999 89 -999
2006-04-24 07:39:56 51°13.601 2°56.099 125.5 -999 123 -999
2006-04-24 07:40:01 51°13.601 2°56.099 125.5 -999 90 -999
2006-04-24 07:40:06 51°13.602 2°56.099 125.6 -999 88 -999
2006-04-24 07:40:11 51°13.601 2°56.099 125.7 -999 202 -999
2006-04-24 07:40:16 51°13.601 2°56.099 125.9 -999 208 -999
2006-04-24 07:40:21 51°13.601 2°56.099 126 -999 176 -999
2006-04-24 07:40:26 51°13.601 2°56.099 126.1 -999 205 -999
2006-04-24 07:40:31 51°13.601 2°56.099 126.2 -999 54 -999
2006-04-24 07:40:36 51°13.601 2°56.099 126.2 -999 234 -999
2006-04-24 07:40:41 51°13.601 2°56.099 126.2 -999 249 -999
2006-04-24 07:40:46 51°13.601 2°56.099 126.2 -999 344 -999
2006-04-24 07:40:51 51°13.601 2°56.099 126.3 -999 261 -999
2006-04-24 07:40:56 51°13.601 2°56.099 126.3 -999 252 -999
2006-04-24 07:41:01 51°13.601 2°56.099 126.4 -999 198 -999
2006-04-24 07:41:06 51°13.601 2°56.099 126.4 -999 245 -999
2006-04-24 07:41:11 51°13.601 2°56.099 126.4 -999 183 -999
2006-04-24 07:41:16 51°13.601 2°56.099 126.4 -999 327 -999
2006-04-24 07:41:21 51°13.601 2°56.099 126.4 -999 4 -999
2006-04-24 07:41:26 51°13.601 2°56.099 126.4 -999 231 -999
2006-04-24 07:41:31 51°13.601 2°56.099 126.4 -999 217 -999
2006-04-24 07:41:36 51°13.601 2°56.099 126.4 -999 242 -999
2006-04-24 07:41:41 51°13.601 2°56.099 126.4 -999 237 -999
2006-04-24 07:41:46 51°13.601 2°56.099 126.4 -999 14 -999
2006-04-24 07:41:51 51°13.601 2°56.099 126.4 -999 311 -999
2006-04-24 07:41:56 51°13.601 2°56.099 126.4 -999 256 -999
2006-04-24 07:42:01 51°13.601 2°56.098 126.4 -999 251 -999
2006-04-24 07:42:06 51°13.601 2°56.098 126.4 -999 346 -999
2006-04-24 07:42:11 51°13.601 2°56.098 126.6 -999 116 -999
2006-04-24 07:42:16 51°13.601 2°56.098 126.6 -999 59 -999
2006-04-24 07:42:20 51°13.601 2°56.098 126.6 -999 28 -999
2006-04-24 07:42:24 51°13.601 2°56.098 126.6 -999 36 7
2006-04-24 07:42:28 51°13.601 2°56.098 126.6 -999 243 -999
2006-04-24 07:42:33 51°13.601 2°56.098 126.7 -999 281 -999
2006-04-24 07:42:38 51°13.601 2°56.098 126.7 -999 245 -999
2006-04-24 07:42:42 51°13.601 2°56.098 126.9 -999 352 7
2006-04-24 07:42:48 51°13.601 2°56.098 126.9 -999 51 -999
2006-04-24 07:42:52 51°13.601 2°56.098 126.9 -999 156 -999
2006-04-24 07:42:58 51°13.601 2°56.098 126.9 -999 21 7
2006-04-24 07:43:02 51°13.601 2°56.098 126.9 -999 190 5.3
2006-04-24 07:43:08 51°13.601 2°56.098 126.9 -999 182 -999
2006-04-24 07:43:13 51°13.601 2°56.098 126.7 -999 270 -999
2006-04-24 07:43:18 51°13.601 2°56.098 126.7 -999 318 -999
2006-04-24 07:43:23 51°13.601 2°56.098 126.7 -999 236 -999
2006-04-24 07:43:28 51°13.601 2°56.098 126.7 -999 20 -999
2006-04-24 07:43:33 51°13.601 2°56.098 126.7 -999 198 7
2006-04-24 07:43:37 51°13.601 2°56.099 126.7 -999 44 7
2006-04-24 07:43:43 51°13.601 2°56.099 126.7 -999 215 -999
2006-04-24 07:43:48 51°13.601 2°56.099 126.7 -999 152 -999
2006-04-24 07:43:52 51°13.601 2°56.099 126.7 -999 214 7
2006-04-24 07:43:56 51°13.601 2°56.099 126.7 -999 336 7
2006-04-24 07:44:02 51°13.601 2°56.099 126.8 -999 268 7
2006-04-24 07:44:08 51°13.601 2°56.099 126.8 -999 299 7
2006-04-24 07:44:12 51°13.601 2°56.099 126.8 -999 24 7.1
2006-04-24 07:44:17 51°13.601 2°56.099 126.7 -999 137 7
2006-04-24 07:44:23 51°13.601 2°56.099 126.7 -999 28 7.1
2006-04-24 07:44:28 51°13.601 2°56.099 126.7 -999 233 7
2006-04-24 07:44:32 51°13.601 2°56.099 126.7 -999 51 7.1
2006-04-24 07:44:38 51°13.601 2°56.099 126.7 -999 32 -999
2006-04-24 07:44:43 51°13.601 2°56.099 126.6 -999 11 -999
2006-04-24 07:44:48 51°13.601 2°56.099 126.6 -999 46 -999
2006-04-24 07:44:53 51°13.601 2°56.099 126.6 -999 346 -999
2006-04-24 07:44:58 51°13.601 2°56.099 126.6 -999 338 -999
2006-04-24 07:45:03 51°13.601 2°56.099 126.6 -999 69 -999
2006-04-24 07:45:08 51°13.601 2°56.099 126.7 -999 309 -999
2006-04-24 07:45:13 51°13.601 2°56.099 126.7 -999 227 -999
2006-04-24 07:45:18 51°13.601 2°56.099 126.7 -999 30 -999
2006-04-24 07:45:23 51°13.601 2°56.099 126.7 -999 215 -999
2006-04-24 07:45:28 51°13.601 2°56.099 126.7 -999 24 7
2006-04-24 07:45:32 51°13.601 2°56.099 126.8 -999 61 7.2
2006-04-24 07:45:38 51°13.601 2°56.099 126.8 -999 322 -999
2006-04-24 07:45:42 51°13.601 2°56.099 126.8 -999 245 7.1
2006-04-24 07:45:47 51°13.601 2°56.099 126.8 -999 356 7
2006-04-24 07:45:52 51°13.601 2°56.099 126.9 -999 46 7
2006-04-24 07:45:57 51°13.601 2°56.099 126.9 -999 309 7
2006-04-24 07:46:02 51°13.601 2°56.099 126.9 -999 240 7.1
2006-04-24 07:46:07 51°13.601 2°56.099 126.9 -999 234 7.1
2006-04-24 07:46:12 51°13.601 2°56.099 126.9 -999 22 -999
2006-04-24 07:46:18 51°13.601 2°56.099 126.8 -999 55 -999
2006-04-24 07:46:23 51°13.601 2°56.099 126.7 -999 260 -999
2006-04-24 07:46:28 51°13.601 2°56.099 126.7 -999 283 -999
2006-04-24 07:46:33 51°13.601 2°56.099 126.6 -999 291 -999
2006-04-24 07:46:38 51°13.601 2°56.099 126.6 -999 230 -999
2006-04-24 07:46:43 51°13.601 2°56.099 126.6 -999 318 -999
2006-04-24 07:46:48 51°13.601 2°56.099 126.7 -999 179 -999
2006-04-24 07:46:53 51°13.601 2°56.099 126.7 -999 89 -999
2006-04-24 07:46:58 51°13.601 2°56.099 126.7 -999 231 -999
2006-04-24 07:47:02 51°13.601 2°56.099 126.7 -999 333 5.3
2006-04-24 07:47:07 51°13.601 2°56.099 126.8 -999 283 7.1
2006-04-24 07:47:12 51°13.601 2°56.099 126.8 -999 359 7.1
2006-04-24 07:47:18 51°13.601 2°56.099 126.8 -999 25 7.1
2006-04-24 07:47:22 51°13.601 2°56.099 126.8 -999 27 7.1
2006-04-24 07:47:27 51°13.601 2°56.099 126.8 -999 27 -999
2006-04-24 07:47:33 51°13.601 2°56.099 126.8 -999 71 -999
2006-04-24 07:47:38 51°13.601 2°56.099 126.8 -999 111 -999
2006-04-24 07:47:43 51°13.601 2°56.099 126.8 -999 228 -999
2006-04-24 07:47:48 51°13.601 2°56.099 126.8 -999 258 -999
2006-04-24 07:47:53 51°13.601 2°56.099 126.7 -999 287 -999
2006-04-24 07:47:58 51°13.601 2°56.099 126.7 -999 267 -999
2006-04-24 07:48:03 51°13.601 2°56.099 126.6 -999 337 -999
2006-04-24 07:48:07 51°13.602 2°56.1 126.6 -999 12 7.1
2006-04-24 07:48:13 51°13.602 2°56.1 126.5 -999 354 -999
2006-04-24 07:48:18 51°13.602 2°56.1 126.4 -999 6 -999
2006-04-24 07:48:23 51°13.602 2°56.1 126.3 -999 19 -999
2006-04-24 07:48:28 51°13.602 2°56.1 126.2 -999 4 -999
2006-04-24 07:48:33 51°13.602 2°56.1 126.1 -999 34 -999
2006-04-24 07:48:38 51°13.602 2°56.1 126.1 -999 -999 -999
2006-04-24 07:48:43 51°13.602 2°56.1 126.1 -999 295 -999
2006-04-24 07:48:48 51°13.602 2°56.1 126 -999 333 -999
2006-04-24 07:48:52 51°13.601 2°56.1 125.9 -999 310 -999
2006-04-24 07:48:58 51°13.601 2°56.1 125.8 -999 354 -999
2006-04-24 07:49:03 51°13.601 2°56.1 125.7 -999 294 -999
2006-04-24 07:49:08 51°13.601 2°56.1 125.7 -999 237 -999
2006-04-24 07:49:13 51°13.601 2°56.1 125.7 -999 47 -999
2006-04-24 07:49:18 51°13.601 2°56.099 125.7 -999 247 -999
2006-04-24 07:49:23 51°13.601 2°56.099 125.7 -999 232 -999
2006-04-24 07:49:28 51°13.601 2°56.099 125.7 -999 152 -999
2006-04-24 07:49:32 51°13.601 2°56.099 125.7 -999 136 7.1
2006-04-24 07:49:38 51°13.601 2°56.099 125.7 -999 165 -999
2006-04-24 07:49:43 51°13.601 2°56.099 125.7 -999 184 -999
2006-04-24 07:49:48 51°13.601 2°56.1 125.7 -999 166 -999
2006-04-24 07:49:52 51°13.601 2°56.1 125.9 -999 180 7.1
2006-04-24 07:49:57 51°13.601 2°56.099 126.1 -999 175 -999
2006-04-24 07:50:03 51°13.601 2°56.099 126.3 -999 195 7.1
2006-04-24 07:50:07 51°13.601 2°56.099 126.6 -999 128 7.1
2006-04-24 07:50:12 51°13.601 2°56.099 126.8 -999 248 -999
2006-04-24 07:50:18 51°13.602 2°56.099 126.9 -999 30 7.2
2006-04-24 07:50:22 51°13.602 2°56.099 126.9 -999 347 7.5
2006-04-24 07:50:27 51°13.602 2°56.099 126.7 -999 352 -999
2006-04-24 07:50:32 51°13.602 2°56.099 126.6 -999 331 7.2
2006-04-24 07:50:38 51°13.602 2°56.099 126.6 -999 31 -999
2006-04-24 07:50:43 51°13.602 2°56.099 126.6 -999 208 -999
2006-04-24 07:50:48 51°13.602 2°56.099 126.6 -999 51 7.1
2006-04-24 07:50:52 51°13.602 2°56.099 126.6 -999 124 -999
2006-04-24 07:50:57 51°13.602 2°56.099 126.6 -999 57 7.2
2006-04-24 07:51:02 51°13.602 2°56.099 126.6 -999 234 5.4
2006-04-24 07:51:08 51°13.602 2°56.099 126.7 -999 351 -999
2006-04-24 07:51:13 51°13.602 2°56.099 126.8 -999 196 7.5
2006-04-24 07:51:18 51°13.602 2°56.099 127 -999 43 -999
2006-04-24 07:51:22 51°13.602 2°56.099 127 -999 280 7.1
2006-04-24 07:51:27 51°13.602 2°56.099 127 -999 279 7.2
2006-04-24 07:51:32 51°13.602 2°56.1 127 -999 271 7.2
2006-04-24 07:51:37 51°13.602 2°56.1 126.9 -999 37 7.1
2006-04-24 07:51:42 51°13.602 2°56.1 126.9 -999 277 7.2
2006-04-24 07:51:48 51°13.602 2°56.1 126.9 -999 13 5.4
2006-04-24 07:51:52 51°13.602 2°56.1 126.9 -999 197 7.2
2006-04-24 07:51:58 51°13.602 2°56.1 126.9 -999 65 7.1
2006-04-24 07:52:02 51°13.602 2°56.1 126.9 -999 198 -999
2006-04-24 07:52:07 51°13.602 2°56.1 126.9 -999 39 7.1
2006-04-24 07:52:12 51°13.602 2°56.1 127 -999 23 7.1
2006-04-24 07:52:17 51°13.602 2°56.1 127 -999 29 5.4
2006-04-24 07:52:22 51°13.602 2°56.1 127 -999 246 7.1
2006-04-24 07:52:28 51°13.602 2°56.1 127 0.1 47 -999
2006-04-24 07:52:32 51°13.602 2°56.1 127 -999 63 7.2
2006-04-24 07:52:38 51°13.602 2°56.1 127 -999 358 -999
2006-04-24 07:52:43 51°13.602 2°56.1 127 -999 337 -999
2006-04-24 07:52:48 51°13.602 2°56.1 127 -999 217 -999
2006-04-24 07:52:53 51°13.602 2°56.1 127 -999 275 -999
2006-04-24 07:52:58 51°13.602 2°56.1 127 -999 40 -999
2006-04-24 07:53:03 51°13.602 2°56.1 126.9 -999 276 -999
2006-04-24 07:53:08 51°13.602 2°56.1 126.9 -999 45 7.2
2006-04-24 07:53:12 51°13.602 2°56.1 126.9 -999 23 7.2
2006-04-24 07:53:17 51°13.602 2°56.1 126.8 -999 185 5.4
2006-04-24 07:53:22 51°13.602 2°56.1 126.8 -999 18 7.1
2006-04-24 07:53:27 51°13.602 2°56.1 126.8 -999 282 7.2
2006-04-24 07:53:32 51°13.602 2°56.1 126.8 -999 201 7.1
2006-04-24 07:53:38 51°13.602 2°56.1 126.8 -999 34 7.2
2006-04-24 07:53:42 51°13.602 2°56.1 126.8 -999 47 7.2
2006-04-24 07:53:47 51°13.602 2°56.1 126.8 -999 37 7.2
2006-04-24 07:53:52 51°13.602 2°56.1 126.8 -999 248 7.2
2006-04-24 07:53:57 51°13.602 2°56.1 126.8 -999 302 7.2
2006-04-24 07:54:02 51°13.602 2°56.1 126.8 -999 305 5.4
2006-04-24 07:54:07 51°13.602 2°56.1 126.8 -999 318 7.2
2006-04-24 07:54:12 51°13.602 2°56.1 126.8 -999 205 7.2
2006-04-24 07:54:17 51°13.602 2°56.1 126.7 -999 352 5.4
2006-04-24 07:54:22 51°13.602 2°56.1 126.7 -999 349 7.2
2006-04-24 07:54:27 51°13.602 2°56.1 126.7 -999 188 7.2
2006-04-24 07:54:32 51°13.602 2°56.1 126.7 -999 258 5.4
2006-04-24 07:54:38 51°13.602 2°56.1 126.7 -999 207 7.2
2006-04-24 07:54:42 51°13.602 2°56.1 126.7 -999 80 7.2
2006-04-24 07:54:47 51°13.602 2°56.1 126.7 -999 235 7.2
2006-04-24 07:54:52 51°13.602 2°56.1 126.7 -999 255 7.2
2006-04-24 07:54:57 51°13.602 2°56.1 126.7 -999 346 7.2
2006-04-24 07:55:02 51°13.602 2°56.1 126.7 -999 273 7.2
2006-04-24 07:55:07 51°13.602 2°56.1 126.7 -999 241 7.2
2006-04-24 07:55:12 51°13.602 2°56.1 126.8 -999 236 7.2
2006-04-24 07:55:17 51°13.602 2°56.1 126.8 -999 8 -999
2006-04-24 07:55:23 51°13.602 2°56.1 126.8 -999 345 -999
2006-04-24 07:55:28 51°13.602 2°56.1 126.8 -999 280 -999
2006-04-24 07:55:33 51°13.602 2°56.1 126.9 -999 271 -999
2006-04-24 07:55:38 51°13.602 2°56.1 127 -999 276 -999
2006-04-24 07:55:42 51°13.602 2°56.1 127 -999 302 7.2
2006-04-24 07:55:48 51°13.602 2°56.1 127 -999 36 -999
2006-04-24 07:55:53 51°13.602 2°56.1 127.1 -999 25 -999
2006-04-24 07:55:58 51°13.602 2°56.1 127.2 -999 32 -999
2006-04-24 07:56:03 51°13.602 2°56.1 127.2 -999 144 -999
2006-04-24 07:56:08 51°13.602 2°56.1 127.2 -999 160 7.2
2006-04-24 07:56:12 51°13.602 2°56.1 127.1 -999 194 -999
2006-04-24 07:56:18 51°13.602 2°56.1 127 -999 52 -999
2006-04-24 07:56:23 51°13.602 2°56.1 127 -999 176 -999
2006-04-24 07:56:28 51°13.602 2°56.1 127 -999 221 -999
2006-04-24 07:56:32 51°13.602 2°56.1 126.9 -999 7 -999
2006-04-24 07:56:38 51°13.602 2°56.1 126.9 -999 212 -999
2006-04-24 07:56:43 51°13.602 2°56.1 126.9 -999 227 -999
2006-04-24 07:56:48 51°13.602 2°56.1 126.9 -999 207 -999
2006-04-24 07:56:53 51°13.602 2°56.1 126.9 -999 217 -999
2006-04-24 07:56:58 51°13.602 2°56.1 126.9 -999 246 -999
2006-04-24 07:57:02 51°13.602 2°56.1 127 -999 235 7.2
2006-04-24 07:57:06 51°13.602 2°56.1 127 -999 325 7.2
2006-04-24 07:57:12 51°13.602 2°56.1 127 -999 270 7.2
2006-04-24 07:57:18 51°13.602 2°56.1 127 -999 208 -999
2006-04-24 07:57:23 51°13.602 2°56.1 127 -999 17 -999
2006-04-24 07:57:28 51°13.602 2°56.1 127.1 -999 338 7.2
2006-04-24 07:57:32 51°13.602 2°56.1 127.1 -999 198 -999
2006-04-24 07:57:38 51°13.602 2°56.1 127.1 -999 21 7.3
2006-04-24 07:57:42 51°13.602 2°56.1 127.1 -999 13 7.2
2006-04-24 07:57:47 51°13.602 2°56.1 127.1 -999 179 7.2
2006-04-24 07:57:52 51°13.602 2°56.1 127.1 -999 42 7.3
2006-04-24 07:57:58 51°13.602 2°56.1 127.2 -999 226 -999
2006-04-24 07:58:03 51°13.602 2°56.1 127.3 -999 235 7.2
2006-04-24 07:58:07 51°13.602 2°56.1 127.3 -999 38 -999
2006-04-24 07:58:12 51°13.602 2°56.1 127.3 -999 7 7.2
2006-04-24 07:58:18 51°13.602 2°56.1 127.3 -999 345 -999
2006-04-24 07:58:22 51°13.602 2°56.1 127.3 -999 75 7.3
2006-04-24 07:58:27 51°13.602 2°56.1 127.1 -999 126 5.4
2006-04-24 07:58:32 51°13.602 2°56.1 127.1 -999 175 7.3
2006-04-24 07:58:38 51°13.602 2°56.1 127 -999 38 -999
2006-04-24 07:58:43 51°13.602 2°56.1 127 -999 19 -999
2006-04-24 07:58:48 51°13.602 2°56.1 127 -999 193 -999
2006-04-24 07:58:53 51°13.602 2°56.1 127 -999 213 -999
2006-04-24 07:58:58 51°13.602 2°56.1 127 -999 359 -999
2006-04-24 07:59:03 51°13.602 2°56.1 127 -999 241 -999
2006-04-24 07:59:08 51°13.602 2°56.1 127.1 -999 330 -999
2006-04-24 07:59:12 51°13.602 2°56.1 127.1 -999 20 7.3
2006-04-24 07:59:18 51°13.603 2°56.1 127.1 -999 344 7.2
2006-04-24 07:59:22 51°13.603 2°56.1 127.1 -999 169 7.2
2006-04-24 07:59:27 51°13.603 2°56.1 127.1 -999 209 7.3
2006-04-24 07:59:32 51°13.603 2°56.1 127.1 -999 20 -999
2006-04-24 07:59:38 51°13.603 2°56.1 127.1 -999 247 -999
2006-04-24 07:59:43 51°13.603 2°56.1 127.1 -999 37 -999
2006-04-24 07:59:48 51°13.603 2°56.1 127.1 -999 94 -999
2006-04-24 07:59:52 51°13.603 2°56.1 127.1 -999 221 7.3
2006-04-24 07:59:57 51°13.603 2°56.1 127.1 -999 355 7.2
2006-04-24 08:00:02 51°13.602 2°56.1 127.1 -999 347 -999
2006-04-24 08:00:08 51°13.602 2°56.1 127.1 -999 13 7.3
2006-04-24 08:00:12 51°13.602 2°56.1 127.1 -999 73 -999
2006-04-24 08:00:18 51°13.602 2°56.1 127.1 -999 56 -999
2006-04-24 08:00:23 51°13.602 2°56.1 127.1 -999 27 -999
2006-04-24 08:00:28 51°13.602 2°56.1 127.1 -999 3 -999
2006-04-24 08:00:32 51°13.602 2°56.1 127 -999 203 7.3
2006-04-24 08:00:37 51°13.602 2°56.1 127 -999 240 7.3
2006-04-24 08:00:42 51°13.602 2°56.1 127 -999 283 5.4
2006-04-24 08:00:48 51°13.602 2°56.1 127 -999 14 7.3
2006-04-24 08:00:52 51°13.602 2°56.1 127 -999 353 5.4
2006-04-24 08:00:58 51°13.602 2°56.1 127 -999 346 7.3
2006-04-24 08:01:02 51°13.602 2°56.1 127 -999 341 7.3
2006-04-24 08:01:07 51°13.602 2°56.1 127 -999 4 7.3
2006-04-24 08:01:12 51°13.602 2°56.1 127 -999 211 7.3
2006-04-24 08:01:17 51°13.602 2°56.1 127 -999 10 7.3
2006-04-24 08:01:22 51°13.602 2°56.1 127 -999 9 7.3
2006-04-24 08:01:27 51°13.602 2°56.1 127 -999 349 7.3
2006-04-24 08:01:32 51°13.602 2°56.1 127 -999 11 7.3
2006-04-24 08:01:37 51°13.602 2°56.1 127 -999 347 7.3
2006-04-24 08:01:43 51°13.602 2°56.1 127 -999 281 -999
2006-04-24 08:01:48 51°13.602 2°56.1 127 -999 252 -999
2006-04-24 08:01:52 51°13.602 2°56.1 127.1 -999 209 7.3
2006-04-24 08:01:58 51°13.602 2°56.1 127.1 -999 246 7.3
2006-04-24 08:02:03 51°13.602 2°56.1 127.2 -999 27 -999
2006-04-24 08:02:08 51°13.602 2°56.1 127.3 -999 13 7.3
2006-04-24 08:02:12 51°13.602 2°56.1 127.3 -999 222 7.3
2006-04-24 08:02:17 51°13.602 2°56.1 127.3 -999 87 7.3
2006-04-24 08:02:22 51°13.602 2°56.1 127.3 -999 64 7.3
2006-04-24 08:02:27 51°13.602 2°56.1 127.3 -999 256 7.3
2006-04-24 08:02:32 51°13.602 2°56.1 127.3 -999 338 7.3
2006-04-24 08:02:37 51°13.602 2°56.1 127.3 -999 4 7.3
2006-04-24 08:02:42 51°13.602 2°56.1 127.3 -999 21 7.3
2006-04-24 08:02:48 51°13.602 2°56.1 127.3 -999 206 7.3
2006-04-24 08:02:53 51°13.602 2°56.1 127.3 -999 208 -999
2006-04-24 08:02:58 51°13.602 2°56.1 127.3 -999 23 -999
2006-04-24 08:03:03 51°13.603 2°56.1 127.2 -999 356 -999
2006-04-24 08:03:08 51°13.603 2°56.1 127.1 -999 208 -999
2006-04-24 08:03:13 51°13.603 2°56.1 127.1 -999 330 -999
2006-04-24 08:03:18 51°13.603 2°56.1 127.1 -999 215 -999
2006-04-24 08:03:23 51°13.603 2°56.1 127.1 -999 236 -999
2006-04-24 08:03:27 51°13.603 2°56.1 127.1 -999 6 7.3
2006-04-24 08:03:33 51°13.603 2°56.1 127.1 -999 268 -999
2006-04-24 08:03:38 51°13.603 2°56.1 127.3 -999 187 -999
2006-04-24 08:03:43 51°13.603 2°56.1 127.3 -999 30 -999
2006-04-24 08:03:48 51°13.603 2°56.1 127.3 -999 336 -999
2006-04-24 08:03:53 51°13.603 2°56.1 127.4 0.1 14 7.4
2006-04-24 08:03:58 51°13.603 2°56.1 127.4 -999 294 -999
2006-04-24 08:04:03 51°13.603 2°56.1 127.4 -999 305 -999
2006-04-24 08:04:08 51°13.603 2°56.1 127.4 -999 231 -999
2006-04-24 08:04:13 51°13.603 2°56.1 127.3 -999 126 -999
2006-04-24 08:04:18 51°13.603 2°56.1 127.2 -999 217 -999
2006-04-24 08:04:23 51°13.603 2°56.1 127.2 -999 209 -999
2006-04-24 08:04:28 51°13.603 2°56.1 127.2 -999 321 -999
2006-04-24 08:04:33 51°13.603 2°56.099 127.2 -999 314 -999
2006-04-24 08:04:38 51°13.603 2°56.099 127.2 -999 7 -999
2006-04-24 08:04:43 51°13.603 2°56.099 127.2 -999 195 -999
2006-04-24 08:04:48 51°13.602 2°56.099 127.4 -999 25 -999
2006-04-24 08:04:53 51°13.602 2°56.099 127.5 -999 348 -999
2006-04-24 08:04:58 51°13.602 2°56.099 127.5 -999 223 -999
2006-04-24 08:05:03 51°13.602 2°56.099 127.5 -999 40 -999
2006-04-24 08:05:08 51°13.602 2°56.099 127.6 -999 47 -999
2006-04-24 08:05:12 51°13.602 2°56.099 127.5 -999 35 7.4
2006-04-24 08:05:18 51°13.603 2°56.099 127.4 -999 68 -999
2006-04-24 08:05:23 51°13.603 2°56.099 127.3 -999 31 -999
2006-04-24 08:05:28 51°13.603 2°56.099 127.2 -999 158 7.5
2006-04-24 08:05:32 51°13.603 2°56.099 127.2 -999 186 7.4
2006-04-24 08:05:38 51°13.603 2°56.099 127.1 -999 305 -999
2006-04-24 08:05:43 51°13.603 2°56.099 127.1 -999 262 -999
2006-04-24 08:05:48 51°13.603 2°56.099 127.1 -999 220 -999
2006-04-24 08:05:52 51°13.603 2°56.099 127.1 -999 219 -999
2006-04-24 08:05:58 51°13.603 2°56.099 127.1 -999 287 -999
2006-04-24 08:06:03 51°13.603 2°56.099 127.2 -999 285 7.4
2006-04-24 08:06:08 51°13.603 2°56.099 127.3 -999 230 -999
2006-04-24 08:06:13 51°13.603 2°56.099 127.3 -999 183 -999
2006-04-24 08:06:18 51°13.602 2°56.099 127.4 -999 56 7.4
2006-04-24 08:06:22 51°13.602 2°56.099 127.4 -999 356 7.4
2006-04-24 08:06:27 51°13.602 2°56.099 127.4 -999 5 -999
2006-04-24 08:06:32 51°13.602 2°56.099 127.4 -999 18 -999
2006-04-24 08:06:37 51°13.602 2°56.099 127.4 -999 15 7.4
2006-04-24 08:06:42 51°13.602 2°56.099 127.4 -999 328 7.4
2006-04-24 08:06:48 51°13.602 2°56.099 127.4 -999 130 7.4
2006-04-24 08:06:52 51°13.602 2°56.099 127.3 -999 295 7.4
2006-04-24 08:06:58 51°13.602 2°56.099 127.2 -999 111 7.4
2006-04-24 08:07:02 51°13.602 2°56.099 127.2 -999 297 -999
2006-04-24 08:07:08 51°13.602 2°56.099 127.2 -999 354 -999
2006-04-24 08:07:13 51°13.602 2°56.099 127.3 -999 327 7.4
2006-04-24 08:07:17 51°13.602 2°56.099 127.5 -999 295 7.4
2006-04-24 08:07:23 51°13.602 2°56.099 127.7 -999 233 -999
2006-04-24 08:07:28 51°13.602 2°56.099 127.7 -999 7 -999
2006-04-24 08:07:33 51°13.602 2°56.099 127.7 -999 198 -999
2006-04-24 08:07:38 51°13.602 2°56.099 127.7 -999 5 -999
2006-04-24 08:07:43 51°13.602 2°56.099 127.7 -999 151 7.4